LJMB/MBX METAR and TAF weather

Enter ICAO airport designator
Station Type Date Time Source
LJMB METAR 2019/10/21 02:30 UTC NOAA

LJMB 210230Z AUTO 19009KT 9999 NCD 17/12 Q1018


Station Type Date Time Source
LJMB Decoded METAR 2019/10/21 02:30 UTC NOAA

Maribor / Slivnica, Slovenia (LJMB) 46-29N 015-41E 265M
Oct 20, 2019 - 10:30 PM EDT / 2019.10.21 0230 UTC
Wind: from the S (190 degrees) at 10 MPH (9 KT):0
Visibility: greater than 7 mile(s):0
Temperature: 62 F (17 C)
Dew Point: 53 F (12 C)
Relative Humidity: 72%
Pressure (altimeter): 30.06 in. Hg (1018 hPa)
ob: LJMB 210230Z AUTO 19009KT 9999 NCD 17/12 Q1018
cycle: 2

Station Type Date Time Source
LJMB TAF 2019/10/21 03:08 UTC NOAA

TAF LJMB 210200Z 2103/2203 19005KT CAVOK
TEMPO 2103/2116 20010KT
TEMPO 2109/2117 FEW045
BECMG 2123/2201 35003KT

Example: see airport list